sensor_id;sensor_type;location;lat;lon;timestamp;P1;durP1;ratioP1;P2;durP2;ratioP2
50900;SDS011;36879;51.416;6.678;2022-08-05T00:01:59;7.90;;;4.80;;
50900;SDS011;36879;51.416;6.678;2022-08-05T00:04:25;12.55;;;5.80;;
50900;SDS011;36879;51.416;6.678;2022-08-05T00:06:51;10.93;;;4.68;;
50900;SDS011;36879;51.416;6.678;2022-08-05T00:09:17;9.23;;;4.63;;
50900;SDS011;36879;51.416;6.678;2022-08-05T00:11:43;8.50;;;5.03;;
50900;SDS011;36879;51.416;6.678;2022-08-05T00:14:09;10.18;;;5.00;;
50900;SDS011;36879;51.416;6.678;2022-08-05T00:16:35;13.48;;;5.15;;
50900;SDS011;36879;51.416;6.678;2022-08-05T00:19:01;9.07;;;4.80;;
50900;SDS011;36879;51.416;6.678;2022-08-05T00:21:27;7.45;;;4.85;;
50900;SDS011;36879;51.416;6.678;2022-08-05T00:23:53;7.18;;;5.05;;
50900;SDS011;36879;51.416;6.678;2022-08-05T00:26:19;14.10;;;5.57;;
50900;SDS011;36879;51.416;6.678;2022-08-05T00:28:46;8.23;;;4.47;;
50900;SDS011;36879;51.416;6.678;2022-08-05T00:31:12;8.40;;;5.15;;
50900;SDS011;36879;51.416;6.678;2022-08-05T00:33:38;7.72;;;4.68;;
50900;SDS011;36879;51.416;6.678;2022-08-05T00:36:04;9.23;;;4.95;;
50900;SDS011;36879;51.416;6.678;2022-08-05T00:38:30;9.75;;;5.65;;
50900;SDS011;36879;51.416;6.678;2022-08-05T00:40:57;12.70;;;6.75;;
50900;SDS011;36879;51.416;6.678;2022-08-05T00:43:23;9.50;;;5.18;;
50900;SDS011;36879;51.416;6.678;2022-08-05T00:45:49;12.75;;;6.22;;
50900;SDS011;36879;51.416;6.678;2022-08-05T00:48:17;8.57;;;5.70;;
50900;SDS011;36879;51.416;6.678;2022-08-05T00:50:45;10.25;;;5.97;;
50900;SDS011;36879;51.416;6.678;2022-08-05T00:53:12;11.45;;;6.85;;
50900;SDS011;36879;51.416;6.678;2022-08-05T00:55:40;16.10;;;7.53;;
50900;SDS011;36879;51.416;6.678;2022-08-05T00:58:06;10.82;;;7.53;;
50900;SDS011;36879;51.416;6.678;2022-08-05T01:00:32;13.98;;;8.77;;
50900;SDS011;36879;51.416;6.678;2022-08-05T01:02:58;15.95;;;8.80;;
50900;SDS011;36879;51.416;6.678;2022-08-05T01:05:25;15.05;;;7.57;;
50900;SDS011;36879;51.416;6.678;2022-08-05T01:07:51;11.57;;;7.93;;
50900;SDS011;36879;51.416;6.678;2022-08-05T01:10:17;15.95;;;9.07;;
50900;SDS011;36879;51.416;6.678;2022-08-05T01:12:47;14.32;;;9.10;;
50900;SDS011;36879;51.416;6.678;2022-08-05T01:15:16;15.38;;;9.25;;
50900;SDS011;36879;51.416;6.678;2022-08-05T01:17:50;13.20;;;8.32;;
50900;SDS011;36879;51.416;6.678;2022-08-05T01:20:35;15.30;;;8.95;;
50900;SDS011;36879;51.416;6.678;2022-08-05T01:28:22;14.07;;;8.00;;
50900;SDS011;36879;51.416;6.678;2022-08-05T01:30:51;15.20;;;8.50;;
50900;SDS011;36879;51.416;6.678;2022-08-05T01:33:18;14.23;;;7.70;;
50900;SDS011;36879;51.416;6.678;2022-08-05T01:35:46;14.90;;;7.90;;
50900;SDS011;36879;51.416;6.678;2022-08-05T01:38:14;14.18;;;8.45;;
50900;SDS011;36879;51.416;6.678;2022-08-05T01:40:41;14.07;;;8.55;;
50900;SDS011;36879;51.416;6.678;2022-08-05T01:43:08;14.40;;;8.45;;
50900;SDS011;36879;51.416;6.678;2022-08-05T01:45:34;15.65;;;7.63;;
50900;SDS011;36879;51.416;6.678;2022-08-05T01:48:00;14.77;;;8.85;;
50900;SDS011;36879;51.416;6.678;2022-08-05T01:50:31;21.80;;;10.98;;
50900;SDS011;36879;51.416;6.678;2022-08-05T01:53:01;15.68;;;8.90;;
50900;SDS011;36879;51.416;6.678;2022-08-05T01:55:28;15.90;;;9.63;;
50900;SDS011;36879;51.416;6.678;2022-08-05T01:57:55;19.17;;;10.10;;
50900;SDS011;36879;51.416;6.678;2022-08-05T02:00:22;21.85;;;10.23;;
50900;SDS011;36879;51.416;6.678;2022-08-05T02:02:51;13.13;;;8.75;;
50900;SDS011;36879;51.416;6.678;2022-08-05T02:08:02;15.85;;;9.15;;
50900;SDS011;36879;51.416;6.678;2022-08-05T02:10:30;17.73;;;8.30;;
50900;SDS011;36879;51.416;6.678;2022-08-05T02:13:03;17.63;;;8.05;;
50900;SDS011;36879;51.416;6.678;2022-08-05T02:15:35;14.38;;;8.15;;
50900;SDS011;36879;51.416;6.678;2022-08-05T02:18:09;15.73;;;9.02;;
50900;SDS011;36879;51.416;6.678;2022-08-05T02:20:48;19.70;;;9.23;;
50900;SDS011;36879;51.416;6.678;2022-08-05T02:23:14;16.17;;;10.05;;
50900;SDS011;36879;51.416;6.678;2022-08-05T02:25:42;20.85;;;11.30;;
50900;SDS011;36879;51.416;6.678;2022-08-05T02:28:08;24.23;;;11.93;;
50900;SDS011;36879;51.416;6.678;2022-08-05T02:30:37;19.38;;;11.15;;
50900;SDS011;36879;51.416;6.678;2022-08-05T02:33:04;22.70;;;11.85;;
50900;SDS011;36879;51.416;6.678;2022-08-05T02:35:32;29.60;;;14.25;;
50900;SDS011;36879;51.416;6.678;2022-08-05T02:38:00;23.58;;;12.05;;
50900;SDS011;36879;51.416;6.678;2022-08-05T02:40:26;27.73;;;12.93;;
50900;SDS011;36879;51.416;6.678;2022-08-05T02:42:52;25.27;;;13.27;;
50900;SDS011;36879;51.416;6.678;2022-08-05T02:45:20;30.30;;;12.60;;
50900;SDS011;36879;51.416;6.678;2022-08-05T02:47:47;24.80;;;13.15;;
50900;SDS011;36879;51.416;6.678;2022-08-05T02:50:14;25.38;;;13.50;;
50900;SDS011;36879;51.416;6.678;2022-08-05T02:52:41;27.60;;;14.40;;
50900;SDS011;36879;51.416;6.678;2022-08-05T02:55:09;28.00;;;13.57;;
50900;SDS011;36879;51.416;6.678;2022-08-05T02:57:35;25.70;;;13.43;;
50900;SDS011;36879;51.416;6.678;2022-08-05T03:00:03;33.97;;;13.93;;
50900;SDS011;36879;51.416;6.678;2022-08-05T03:02:30;24.05;;;12.95;;
50900;SDS011;36879;51.416;6.678;2022-08-05T03:04:58;25.25;;;12.23;;
50900;SDS011;36879;51.416;6.678;2022-08-05T03:07:26;24.13;;;12.52;;
50900;SDS011;36879;51.416;6.678;2022-08-05T03:09:52;26.65;;;12.55;;
50900;SDS011;36879;51.416;6.678;2022-08-05T03:12:33;30.13;;;14.35;;
50900;SDS011;36879;51.416;6.678;2022-08-05T03:15:00;25.05;;;13.38;;
50900;SDS011;36879;51.416;6.678;2022-08-05T03:17:26;26.27;;;14.25;;
50900;SDS011;36879;51.416;6.678;2022-08-05T03:19:52;23.15;;;13.60;;
50900;SDS011;36879;51.416;6.678;2022-08-05T03:22:18;25.30;;;13.30;;
50900;SDS011;36879;51.416;6.678;2022-08-05T03:24:45;26.58;;;14.45;;
50900;SDS011;36879;51.416;6.678;2022-08-05T03:27:11;30.10;;;14.65;;
50900;SDS011;36879;51.416;6.678;2022-08-05T03:29:38;33.05;;;16.58;;
50900;SDS011;36879;51.416;6.678;2022-08-05T03:32:05;22.60;;;13.60;;
50900;SDS011;36879;51.416;6.678;2022-08-05T03:34:31;34.88;;;15.45;;
50900;SDS011;36879;51.416;6.678;2022-08-05T03:36:57;29.17;;;15.88;;
50900;SDS011;36879;51.416;6.678;2022-08-05T03:39:23;23.38;;;13.40;;
50900;SDS011;36879;51.416;6.678;2022-08-05T03:41:49;37.50;;;14.57;;
50900;SDS011;36879;51.416;6.678;2022-08-05T03:44:15;28.55;;;16.15;;
50900;SDS011;36879;51.416;6.678;2022-08-05T03:46:41;33.22;;;15.80;;
50900;SDS011;36879;51.416;6.678;2022-08-05T03:49:07;27.05;;;14.75;;
50900;SDS011;36879;51.416;6.678;2022-08-05T03:51:34;31.30;;;14.23;;
50900;SDS011;36879;51.416;6.678;2022-08-05T03:54:05;34.60;;;17.70;;
50900;SDS011;36879;51.416;6.678;2022-08-05T03:56:40;27.95;;;16.40;;
50900;SDS011;36879;51.416;6.678;2022-08-05T03:59:20;32.90;;;17.95;;
50900;SDS011;36879;51.416;6.678;2022-08-05T04:01:48;30.50;;;16.88;;
50900;SDS011;36879;51.416;6.678;2022-08-05T04:04:15;32.85;;;16.67;;
50900;SDS011;36879;51.416;6.678;2022-08-05T04:06:43;36.13;;;17.48;;
50900;SDS011;36879;51.416;6.678;2022-08-05T04:09:09;30.75;;;15.90;;
50900;SDS011;36879;51.416;6.678;2022-08-05T04:11:36;37.10;;;17.08;;
50900;SDS011;36879;51.416;6.678;2022-08-05T04:14:03;33.78;;;18.25;;
50900;SDS011;36879;51.416;6.678;2022-08-05T04:16:31;47.05;;;21.20;;
50900;SDS011;36879;51.416;6.678;2022-08-05T04:18:57;39.00;;;18.90;;
50900;SDS011;36879;51.416;6.678;2022-08-05T04:21:23;43.65;;;20.42;;
50900;SDS011;36879;51.416;6.678;2022-08-05T04:23:49;41.40;;;20.25;;
50900;SDS011;36879;51.416;6.678;2022-08-05T04:26:15;39.25;;;19.65;;
50900;SDS011;36879;51.416;6.678;2022-08-05T04:28:41;39.35;;;21.95;;
50900;SDS011;36879;51.416;6.678;2022-08-05T04:31:07;41.50;;;20.00;;
50900;SDS011;36879;51.416;6.678;2022-08-05T04:33:33;48.20;;;23.40;;
50900;SDS011;36879;51.416;6.678;2022-08-05T04:35:59;45.88;;;21.63;;
50900;SDS011;36879;51.416;6.678;2022-08-05T04:38:25;48.03;;;23.80;;
50900;SDS011;36879;51.416;6.678;2022-08-05T04:40:51;47.63;;;22.65;;
50900;SDS011;36879;51.416;6.678;2022-08-05T04:43:17;43.80;;;21.77;;
50900;SDS011;36879;51.416;6.678;2022-08-05T04:45:43;44.28;;;21.48;;
50900;SDS011;36879;51.416;6.678;2022-08-05T04:48:10;50.35;;;25.40;;
50900;SDS011;36879;51.416;6.678;2022-08-05T04:50:37;45.15;;;23.17;;
50900;SDS011;36879;51.416;6.678;2022-08-05T04:53:04;45.08;;;23.63;;
50900;SDS011;36879;51.416;6.678;2022-08-05T04:55:30;45.78;;;21.17;;
50900;SDS011;36879;51.416;6.678;2022-08-05T04:57:56;49.15;;;22.27;;
50900;SDS011;36879;51.416;6.678;2022-08-05T05:00:22;58.42;;;25.60;;
50900;SDS011;36879;51.416;6.678;2022-08-05T05:02:48;58.90;;;23.75;;
50900;SDS011;36879;51.416;6.678;2022-08-05T05:05:14;50.65;;;22.85;;
50900;SDS011;36879;51.416;6.678;2022-08-05T05:07:41;49.35;;;22.55;;
50900;SDS011;36879;51.416;6.678;2022-08-05T05:10:07;51.60;;;23.98;;
50900;SDS011;36879;51.416;6.678;2022-08-05T05:12:33;46.03;;;24.25;;
50900;SDS011;36879;51.416;6.678;2022-08-05T05:14:59;41.55;;;20.67;;
50900;SDS011;36879;51.416;6.678;2022-08-05T05:17:25;43.55;;;21.15;;
50900;SDS011;36879;51.416;6.678;2022-08-05T05:19:52;43.00;;;23.50;;
50900;SDS011;36879;51.416;6.678;2022-08-05T05:22:19;42.95;;;20.45;;
50900;SDS011;36879;51.416;6.678;2022-08-05T05:24:45;43.92;;;22.35;;
50900;SDS011;36879;51.416;6.678;2022-08-05T05:27:11;41.95;;;21.77;;
50900;SDS011;36879;51.416;6.678;2022-08-05T05:29:37;50.30;;;22.30;;
50900;SDS011;36879;51.416;6.678;2022-08-05T05:32:03;48.45;;;23.92;;
50900;SDS011;36879;51.416;6.678;2022-08-05T05:34:30;40.38;;;20.45;;
50900;SDS011;36879;51.416;6.678;2022-08-05T05:36:56;48.67;;;21.67;;
50900;SDS011;36879;51.416;6.678;2022-08-05T05:39:22;51.10;;;23.60;;
50900;SDS011;36879;51.416;6.678;2022-08-05T05:41:48;46.50;;;22.27;;
50900;SDS011;36879;51.416;6.678;2022-08-05T05:44:14;47.80;;;23.27;;
50900;SDS011;36879;51.416;6.678;2022-08-05T05:46:40;40.58;;;20.63;;
50900;SDS011;36879;51.416;6.678;2022-08-05T05:49:06;37.42;;;19.77;;
50900;SDS011;36879;51.416;6.678;2022-08-05T05:51:32;39.88;;;20.95;;
50900;SDS011;36879;51.416;6.678;2022-08-05T05:53:58;43.28;;;20.60;;
50900;SDS011;36879;51.416;6.678;2022-08-05T05:56:28;39.00;;;19.58;;
50900;SDS011;36879;51.416;6.678;2022-08-05T05:58:54;31.30;;;17.42;;
50900;SDS011;36879;51.416;6.678;2022-08-05T06:01:20;36.35;;;19.00;;
50900;SDS011;36879;51.416;6.678;2022-08-05T06:03:46;27.80;;;16.48;;
50900;SDS011;36879;51.416;6.678;2022-08-05T06:06:12;33.03;;;15.10;;
50900;SDS011;36879;51.416;6.678;2022-08-05T06:08:38;29.58;;;15.68;;
50900;SDS011;36879;51.416;6.678;2022-08-05T06:11:05;28.08;;;14.15;;
50900;SDS011;36879;51.416;6.678;2022-08-05T06:13:31;32.47;;;15.73;;
50900;SDS011;36879;51.416;6.678;2022-08-05T06:15:57;25.10;;;14.85;;
50900;SDS011;36879;51.416;6.678;2022-08-05T06:18:23;30.35;;;13.02;;
50900;SDS011;36879;51.416;6.678;2022-08-05T06:20:49;26.08;;;13.65;;
50900;SDS011;36879;51.416;6.678;2022-08-05T06:23:15;26.40;;;13.50;;
50900;SDS011;36879;51.416;6.678;2022-08-05T06:25:41;25.10;;;12.05;;
50900;SDS011;36879;51.416;6.678;2022-08-05T06:28:07;25.48;;;12.13;;
50900;SDS011;36879;51.416;6.678;2022-08-05T06:30:33;24.30;;;11.32;;
50900;SDS011;36879;51.416;6.678;2022-08-05T06:32:59;27.58;;;12.43;;
50900;SDS011;36879;51.416;6.678;2022-08-05T06:35:25;23.90;;;12.60;;
50900;SDS011;36879;51.416;6.678;2022-08-05T06:37:51;20.27;;;11.13;;
50900;SDS011;36879;51.416;6.678;2022-08-05T06:40:17;22.67;;;12.05;;
50900;SDS011;36879;51.416;6.678;2022-08-05T06:42:43;20.25;;;10.90;;
50900;SDS011;36879;51.416;6.678;2022-08-05T06:45:10;20.17;;;10.95;;
50900;SDS011;36879;51.416;6.678;2022-08-05T06:47:36;20.90;;;11.18;;
50900;SDS011;36879;51.416;6.678;2022-08-05T06:50:02;23.17;;;12.55;;
50900;SDS011;36879;51.416;6.678;2022-08-05T06:52:28;21.63;;;11.98;;
50900;SDS011;36879;51.416;6.678;2022-08-05T06:54:54;20.83;;;11.85;;
50900;SDS011;36879;51.416;6.678;2022-08-05T06:57:20;19.00;;;10.63;;
50900;SDS011;36879;51.416;6.678;2022-08-05T06:59:46;17.42;;;10.18;;
50900;SDS011;36879;51.416;6.678;2022-08-05T07:02:12;18.17;;;10.07;;
50900;SDS011;36879;51.416;6.678;2022-08-05T07:04:38;19.40;;;10.38;;
50900;SDS011;36879;51.416;6.678;2022-08-05T07:07:04;16.73;;;10.20;;
50900;SDS011;36879;51.416;6.678;2022-08-05T07:09:31;17.08;;;9.73;;
50900;SDS011;36879;51.416;6.678;2022-08-05T07:11:57;19.08;;;9.50;;
50900;SDS011;36879;51.416;6.678;2022-08-05T07:14:23;16.30;;;9.60;;
50900;SDS011;36879;51.416;6.678;2022-08-05T07:17:07;19.48;;;8.40;;
50900;SDS011;36879;51.416;6.678;2022-08-05T07:19:33;13.02;;;7.97;;
50900;SDS011;36879;51.416;6.678;2022-08-05T07:22:00;19.52;;;8.63;;
50900;SDS011;36879;51.416;6.678;2022-08-05T07:24:26;12.20;;;7.07;;
50900;SDS011;36879;51.416;6.678;2022-08-05T07:26:52;14.23;;;6.93;;
50900;SDS011;36879;51.416;6.678;2022-08-05T07:29:18;15.80;;;8.43;;
50900;SDS011;36879;51.416;6.678;2022-08-05T07:31:44;11.52;;;5.90;;
50900;SDS011;36879;51.416;6.678;2022-08-05T07:34:10;10.90;;;6.65;;
50900;SDS011;36879;51.416;6.678;2022-08-05T07:36:36;15.20;;;6.50;;
50900;SDS011;36879;51.416;6.678;2022-08-05T07:39:06;15.30;;;7.70;;
50900;SDS011;36879;51.416;6.678;2022-08-05T07:41:32;11.57;;;6.65;;
50900;SDS011;36879;51.416;6.678;2022-08-05T07:43:58;12.60;;;7.53;;
50900;SDS011;36879;51.416;6.678;2022-08-05T07:46:25;10.43;;;6.68;;
50900;SDS011;36879;51.416;6.678;2022-08-05T07:48:53;14.10;;;8.00;;
50900;SDS011;36879;51.416;6.678;2022-08-05T07:51:19;16.08;;;7.15;;
50900;SDS011;36879;51.416;6.678;2022-08-05T07:53:45;11.93;;;6.80;;
50900;SDS011;36879;51.416;6.678;2022-08-05T07:56:11;11.50;;;6.32;;
50900;SDS011;36879;51.416;6.678;2022-08-05T07:58:37;9.50;;;6.18;;
50900;SDS011;36879;51.416;6.678;2022-08-05T08:01:03;11.63;;;6.75;;
50900;SDS011;36879;51.416;6.678;2022-08-05T08:03:29;10.55;;;6.57;;
50900;SDS011;36879;51.416;6.678;2022-08-05T08:05:56;11.20;;;7.00;;
50900;SDS011;36879;51.416;6.678;2022-08-05T08:08:28;11.70;;;6.47;;
50900;SDS011;36879;51.416;6.678;2022-08-05T08:11:00;9.80;;;6.85;;
50900;SDS011;36879;51.416;6.678;2022-08-05T08:13:26;14.63;;;6.65;;
50900;SDS011;36879;51.416;6.678;2022-08-05T08:15:52;9.35;;;5.82;;
50900;SDS011;36879;51.416;6.678;2022-08-05T08:18:18;13.00;;;5.97;;
50900;SDS011;36879;51.416;6.678;2022-08-05T08:20:44;10.32;;;6.30;;
50900;SDS011;36879;51.416;6.678;2022-08-05T08:23:11;13.65;;;5.82;;
50900;SDS011;36879;51.416;6.678;2022-08-05T08:25:37;8.95;;;5.43;;
50900;SDS011;36879;51.416;6.678;2022-08-05T08:28:03;7.75;;;5.25;;
50900;SDS011;36879;51.416;6.678;2022-08-05T08:30:29;10.32;;;6.55;;
50900;SDS011;36879;51.416;6.678;2022-08-05T08:32:55;9.25;;;5.22;;
50900;SDS011;36879;51.416;6.678;2022-08-05T08:35:21;8.25;;;5.32;;
50900;SDS011;36879;51.416;6.678;2022-08-05T08:37:48;11.90;;;6.28;;
50900;SDS011;36879;51.416;6.678;2022-08-05T08:40:14;10.77;;;5.47;;
50900;SDS011;36879;51.416;6.678;2022-08-05T08:42:40;11.02;;;4.75;;
50900;SDS011;36879;51.416;6.678;2022-08-05T08:45:07;9.77;;;5.10;;
50900;SDS011;36879;51.416;6.678;2022-08-05T08:47:34;13.60;;;5.43;;
50900;SDS011;36879;51.416;6.678;2022-08-05T08:50:01;7.57;;;4.72;;
50900;SDS011;36879;51.416;6.678;2022-08-05T08:52:28;9.30;;;5.53;;
50900;SDS011;36879;51.416;6.678;2022-08-05T08:54:54;8.63;;;5.38;;
50900;SDS011;36879;51.416;6.678;2022-08-05T08:57:21;7.85;;;4.60;;
50900;SDS011;36879;51.416;6.678;2022-08-05T08:59:47;12.10;;;5.28;;
50900;SDS011;36879;51.416;6.678;2022-08-05T09:02:14;7.63;;;4.70;;
50900;SDS011;36879;51.416;6.678;2022-08-05T09:04:42;9.65;;;5.32;;
50900;SDS011;36879;51.416;6.678;2022-08-05T09:07:09;8.77;;;4.15;;
50900;SDS011;36879;51.416;6.678;2022-08-05T09:09:35;13.57;;;5.32;;
50900;SDS011;36879;51.416;6.678;2022-08-05T09:12:02;6.75;;;4.78;;
50900;SDS011;36879;51.416;6.678;2022-08-05T09:14:30;6.65;;;4.25;;
50900;SDS011;36879;51.416;6.678;2022-08-05T09:16:57;9.05;;;4.07;;
50900;SDS011;36879;51.416;6.678;2022-08-05T09:19:23;10.57;;;5.13;;
50900;SDS011;36879;51.416;6.678;2022-08-05T09:21:49;8.15;;;4.30;;
50900;SDS011;36879;51.416;6.678;2022-08-05T09:24:15;7.50;;;3.97;;
50900;SDS011;36879;51.416;6.678;2022-08-05T09:26:45;8.48;;;4.35;;
50900;SDS011;36879;51.416;6.678;2022-08-05T09:29:11;13.15;;;5.50;;
50900;SDS011;36879;51.416;6.678;2022-08-05T09:31:38;7.30;;;3.47;;
50900;SDS011;36879;51.416;6.678;2022-08-05T09:34:08;12.50;;;3.97;;
50900;SDS011;36879;51.416;6.678;2022-08-05T09:39:04;6.68;;;2.88;;
50900;SDS011;36879;51.416;6.678;2022-08-05T09:41:30;6.57;;;3.15;;
50900;SDS011;36879;51.416;6.678;2022-08-05T09:43:56;6.57;;;2.90;;
50900;SDS011;36879;51.416;6.678;2022-08-05T09:46:29;6.22;;;2.50;;
50900;SDS011;36879;51.416;6.678;2022-08-05T09:48:56;8.82;;;3.30;;
50900;SDS011;36879;51.416;6.678;2022-08-05T09:53:57;4.65;;;2.53;;
50900;SDS011;36879;51.416;6.678;2022-08-05T09:56:24;3.20;;;2.05;;
50900;SDS011;36879;51.416;6.678;2022-08-05T09:58:55;5.18;;;2.38;;
50900;SDS011;36879;51.416;6.678;2022-08-05T10:01:21;5.85;;;2.35;;
50900;SDS011;36879;51.416;6.678;2022-08-05T10:03:58;3.28;;;1.52;;
50900;SDS011;36879;51.416;6.678;2022-08-05T10:06:25;4.32;;;2.25;;
50900;SDS011;36879;51.416;6.678;2022-08-05T10:08:51;5.38;;;2.00;;
50900;SDS011;36879;51.416;6.678;2022-08-05T10:11:18;5.13;;;1.42;;
50900;SDS011;36879;51.416;6.678;2022-08-05T10:13:44;3.63;;;1.58;;
50900;SDS011;36879;51.416;6.678;2022-08-05T10:18:55;3.67;;;1.60;;
50900;SDS011;36879;51.416;6.678;2022-08-05T10:21:21;4.90;;;1.83;;
50900;SDS011;36879;51.416;6.678;2022-08-05T10:23:47;3.10;;;1.15;;
50900;SDS011;36879;51.416;6.678;2022-08-05T10:26:14;3.42;;;1.40;;
50900;SDS011;36879;51.416;6.678;2022-08-05T10:28:41;6.10;;;2.17;;
50900;SDS011;36879;51.416;6.678;2022-08-05T10:31:08;4.70;;;1.50;;
50900;SDS011;36879;51.416;6.678;2022-08-05T10:33:36;3.58;;;1.50;;
50900;SDS011;36879;51.416;6.678;2022-08-05T10:36:02;2.92;;;1.35;;
50900;SDS011;36879;51.416;6.678;2022-08-05T10:38:29;4.25;;;1.45;;
50900;SDS011;36879;51.416;6.678;2022-08-05T10:46:16;3.85;;;1.20;;
50900;SDS011;36879;51.416;6.678;2022-08-05T10:48:43;6.63;;;1.83;;
50900;SDS011;36879;51.416;6.678;2022-08-05T10:53:43;5.63;;;1.73;;
50900;SDS011;36879;51.416;6.678;2022-08-05T10:56:13;4.63;;;2.17;;
50900;SDS011;36879;51.416;6.678;2022-08-05T11:01:28;13.77;;;3.08;;
50900;SDS011;36879;51.416;6.678;2022-08-05T11:04:00;2.67;;;1.52;;
50900;SDS011;36879;51.416;6.678;2022-08-05T11:06:26;12.13;;;3.22;;
50900;SDS011;36879;51.416;6.678;2022-08-05T11:11:37;3.95;;;1.88;;
50900;SDS011;36879;51.416;6.678;2022-08-05T11:14:03;6.32;;;2.17;;
50900;SDS011;36879;51.416;6.678;2022-08-05T11:16:30;8.65;;;3.05;;
50900;SDS011;36879;51.416;6.678;2022-08-05T11:21:41;14.70;;;2.60;;
50900;SDS011;36879;51.416;6.678;2022-08-05T11:24:07;12.77;;;3.70;;
50900;SDS011;36879;51.416;6.678;2022-08-05T11:26:33;5.25;;;2.53;;
50900;SDS011;36879;51.416;6.678;2022-08-05T11:29:00;7.68;;;2.13;;
50900;SDS011;36879;51.416;6.678;2022-08-05T11:31:28;3.22;;;1.60;;
50900;SDS011;36879;51.416;6.678;2022-08-05T11:33:58;5.55;;;1.52;;
50900;SDS011;36879;51.416;6.678;2022-08-05T11:36:38;10.82;;;2.75;;
50900;SDS011;36879;51.416;6.678;2022-08-05T11:39:05;5.47;;;2.08;;
50900;SDS011;36879;51.416;6.678;2022-08-05T11:41:31;6.00;;;2.50;;
50900;SDS011;36879;51.416;6.678;2022-08-05T11:48:57;7.38;;;2.20;;
50900;SDS011;36879;51.416;6.678;2022-08-05T11:51:24;7.35;;;2.95;;
50900;SDS011;36879;51.416;6.678;2022-08-05T11:53:51;6.60;;;2.20;;
50900;SDS011;36879;51.416;6.678;2022-08-05T11:56:17;7.05;;;1.95;;
50900;SDS011;36879;51.416;6.678;2022-08-05T11:58:44;5.40;;;2.10;;
50900;SDS011;36879;51.416;6.678;2022-08-05T12:01:14;8.13;;;2.55;;
50900;SDS011;36879;51.416;6.678;2022-08-05T12:03:41;3.28;;;1.90;;
50900;SDS011;36879;51.416;6.678;2022-08-05T12:06:07;4.03;;;1.90;;
50900;SDS011;36879;51.416;6.678;2022-08-05T12:08:44;5.40;;;2.55;;
50900;SDS011;36879;51.416;6.678;2022-08-05T12:11:14;6.47;;;1.77;;
50900;SDS011;36879;51.416;6.678;2022-08-05T12:13:51;2.75;;;1.80;;
50900;SDS011;36879;51.416;6.678;2022-08-05T12:18:45;3.95;;;1.80;;
50900;SDS011;36879;51.416;6.678;2022-08-05T12:21:12;5.47;;;1.80;;
50900;SDS011;36879;51.416;6.678;2022-08-05T12:23:38;4.88;;;2.47;;
50900;SDS011;36879;51.416;6.678;2022-08-05T12:26:05;5.30;;;1.60;;
50900;SDS011;36879;51.416;6.678;2022-08-05T12:28:31;4.30;;;1.70;;
50900;SDS011;36879;51.416;6.678;2022-08-05T12:30:57;6.18;;;2.22;;
50900;SDS011;36879;51.416;6.678;2022-08-05T12:33:24;6.30;;;2.00;;
50900;SDS011;36879;51.416;6.678;2022-08-05T12:35:50;7.78;;;1.88;;
50900;SDS011;36879;51.416;6.678;2022-08-05T12:38:16;2.83;;;1.52;;
50900;SDS011;36879;51.416;6.678;2022-08-05T12:40:42;4.32;;;1.85;;
50900;SDS011;36879;51.416;6.678;2022-08-05T12:43:09;2.53;;;1.30;;
50900;SDS011;36879;51.416;6.678;2022-08-05T12:45:35;3.42;;;1.48;;
50900;SDS011;36879;51.416;6.678;2022-08-05T12:48:14;3.42;;;1.13;;
50900;SDS011;36879;51.416;6.678;2022-08-05T12:50:40;3.72;;;1.48;;
50900;SDS011;36879;51.416;6.678;2022-08-05T12:53:06;4.28;;;1.15;;
50900;SDS011;36879;51.416;6.678;2022-08-05T12:55:32;3.70;;;1.10;;
50900;SDS011;36879;51.416;6.678;2022-08-05T12:57:59;3.97;;;0.98;;
50900;SDS011;36879;51.416;6.678;2022-08-05T13:00:26;3.83;;;1.55;;
50900;SDS011;36879;51.416;6.678;2022-08-05T13:02:54;2.35;;;0.68;;
50900;SDS011;36879;51.416;6.678;2022-08-05T13:05:21;1.10;;;0.80;;
50900;SDS011;36879;51.416;6.678;2022-08-05T13:07:48;1.65;;;0.93;;
50900;SDS011;36879;51.416;6.678;2022-08-05T13:10:14;3.22;;;0.93;;
50900;SDS011;36879;51.416;6.678;2022-08-05T13:12:42;4.15;;;0.85;;
50900;SDS011;36879;51.416;6.678;2022-08-05T13:15:08;1.50;;;0.88;;
50900;SDS011;36879;51.416;6.678;2022-08-05T13:17:35;5.82;;;0.90;;
50900;SDS011;36879;51.416;6.678;2022-08-05T13:20:08;2.55;;;1.05;;
50900;SDS011;36879;51.416;6.678;2022-08-05T13:22:36;2.28;;;1.00;;
50900;SDS011;36879;51.416;6.678;2022-08-05T13:25:09;3.47;;;0.88;;
50900;SDS011;36879;51.416;6.678;2022-08-05T13:27:40;2.30;;;0.80;;
50900;SDS011;36879;51.416;6.678;2022-08-05T13:30:07;1.80;;;1.00;;
50900;SDS011;36879;51.416;6.678;2022-08-05T13:32:33;5.32;;;1.10;;
50900;SDS011;36879;51.416;6.678;2022-08-05T13:34:59;2.80;;;0.90;;
50900;SDS011;36879;51.416;6.678;2022-08-05T13:37:25;4.85;;;1.10;;
50900;SDS011;36879;51.416;6.678;2022-08-05T13:39:51;2.40;;;0.95;;
50900;SDS011;36879;51.416;6.678;2022-08-05T13:42:18;2.03;;;0.93;;
50900;SDS011;36879;51.416;6.678;2022-08-05T13:44:44;4.97;;;1.00;;
50900;SDS011;36879;51.416;6.678;2022-08-05T13:47:11;1.65;;;0.63;;
50900;SDS011;36879;51.416;6.678;2022-08-05T13:49:37;3.45;;;0.70;;
50900;SDS011;36879;51.416;6.678;2022-08-05T13:52:13;0.75;;;0.60;;
50900;SDS011;36879;51.416;6.678;2022-08-05T13:54:40;3.03;;;1.15;;
50900;SDS011;36879;51.416;6.678;2022-08-05T13:57:07;1.00;;;0.77;;
50900;SDS011;36879;51.416;6.678;2022-08-05T13:59:33;8.02;;;1.50;;
50900;SDS011;36879;51.416;6.678;2022-08-05T14:01:59;1.58;;;0.57;;
50900;SDS011;36879;51.416;6.678;2022-08-05T14:04:27;2.42;;;0.73;;
50900;SDS011;36879;51.416;6.678;2022-08-05T14:07:12;3.67;;;0.73;;
50900;SDS011;36879;51.416;6.678;2022-08-05T14:09:38;1.40;;;0.73;;
50900;SDS011;36879;51.416;6.678;2022-08-05T14:12:05;2.80;;;0.90;;
50900;SDS011;36879;51.416;6.678;2022-08-05T14:14:31;2.25;;;0.60;;
50900;SDS011;36879;51.416;6.678;2022-08-05T14:16:57;2.42;;;0.77;;
50900;SDS011;36879;51.416;6.678;2022-08-05T14:19:23;1.73;;;0.80;;
50900;SDS011;36879;51.416;6.678;2022-08-05T14:21:49;2.70;;;0.70;;
50900;SDS011;36879;51.416;6.678;2022-08-05T14:24:15;3.30;;;0.75;;
50900;SDS011;36879;51.416;6.678;2022-08-05T14:26:41;2.70;;;0.75;;
50900;SDS011;36879;51.416;6.678;2022-08-05T14:29:07;1.13;;;0.50;;
50900;SDS011;36879;51.416;6.678;2022-08-05T14:31:33;1.52;;;0.52;;
50900;SDS011;36879;51.416;6.678;2022-08-05T14:33:59;0.93;;;0.50;;
50900;SDS011;36879;51.416;6.678;2022-08-05T14:36:25;1.67;;;0.52;;
50900;SDS011;36879;51.416;6.678;2022-08-05T14:38:51;1.08;;;0.70;;
50900;SDS011;36879;51.416;6.678;2022-08-05T14:41:17;1.10;;;0.60;;
50900;SDS011;36879;51.416;6.678;2022-08-05T14:43:43;3.30;;;1.10;;
50900;SDS011;36879;51.416;6.678;2022-08-05T14:46:09;1.85;;;0.50;;
50900;SDS011;36879;51.416;6.678;2022-08-05T14:48:36;1.45;;;0.65;;
50900;SDS011;36879;51.416;6.678;2022-08-05T14:51:02;2.05;;;0.70;;
50900;SDS011;36879;51.416;6.678;2022-08-05T14:53:28;1.63;;;0.50;;
50900;SDS011;36879;51.416;6.678;2022-08-05T14:55:54;0.68;;;0.40;;
50900;SDS011;36879;51.416;6.678;2022-08-05T14:58:20;1.77;;;0.50;;
50900;SDS011;36879;51.416;6.678;2022-08-05T15:00:46;1.15;;;0.55;;
50900;SDS011;36879;51.416;6.678;2022-08-05T15:03:12;1.25;;;1.15;;
50900;SDS011;36879;51.416;6.678;2022-08-05T15:05:38;1.40;;;0.47;;
50900;SDS011;36879;51.416;6.678;2022-08-05T15:08:04;1.45;;;0.45;;
50900;SDS011;36879;51.416;6.678;2022-08-05T15:10:30;3.75;;;0.52;;
50900;SDS011;36879;51.416;6.678;2022-08-05T15:12:56;3.42;;;0.70;;
50900;SDS011;36879;51.416;6.678;2022-08-05T15:15:24;2.22;;;0.52;;